SCOT11 YBOK-YBOK
Flight info
| Callsign | SCOT11 |
|---|---|
| Flight time | 0h 38m |
| Altitude | 14000 |
| Route | OK |
| Aircraft | H135/L-SDFGRY/LB1 |
Departure
| Time | 2026-04-25 07:29 |
|---|---|
| Airport | Oakey Army Aviation Centre (YBOK) |
Arrival
| Time | 2026-04-25 08:07 |
|---|---|
| Airport | Oakey Army Aviation Centre (YBOK) |
| Time | Latitude | Longitude | Altitude | Speed | Heading |
|---|---|---|---|---|---|
| 2026-04-25 07:13 | -27.41281 | 151.73339 | 1336 ft | 0 kts | 99° |
| 2026-04-25 07:24 | -27.41277 | 151.73338 | 1342 ft | 0 kts | 30° |
| 2026-04-25 07:24 | -27.41267 | 151.73325 | 1344 ft | 6 kts | 320° |
| 2026-04-25 07:24 | -27.41226 | 151.73301 | 1351 ft | 7 kts | 339° |
| 2026-04-25 07:25 | -27.41195 | 151.73277 | 1342 ft | 7 kts | 279° |
| 2026-04-25 07:25 | -27.41183 | 151.73200 | 1343 ft | 11 kts | 282° |
| 2026-04-25 07:25 | -27.41170 | 151.73117 | 1344 ft | 11 kts | 280° |
| 2026-04-25 07:25 | -27.41158 | 151.73030 | 1343 ft | 10 kts | 280° |
| 2026-04-25 07:26 | -27.41149 | 151.72978 | 1346 ft | 5 kts | 279° |
| 2026-04-25 07:26 | -27.41147 | 151.72956 | 1345 ft | 1 kts | 283° |
| 2026-04-25 07:26 | -27.41147 | 151.72952 | 1348 ft | 1 kts | 296° |
| 2026-04-25 07:26 | -27.41148 | 151.72953 | 1346 ft | 1 kts | 287° |
| 2026-04-25 07:27 | -27.41148 | 151.72956 | 1342 ft | 0 kts | 287° |
| 2026-04-25 07:27 | -27.41148 | 151.72955 | 1342 ft | 1 kts | 279° |
| 2026-04-25 07:27 | -27.41148 | 151.72954 | 1348 ft | 1 kts | 290° |
| 2026-04-25 07:27 | -27.41149 | 151.72952 | 1344 ft | 0 kts | 334° |
| 2026-04-25 07:28 | -27.41149 | 151.72953 | 1341 ft | 1 kts | 345° |
| 2026-04-25 07:28 | -27.41151 | 151.72953 | 1343 ft | 1 kts | 3° |
| 2026-04-25 07:28 | -27.41149 | 151.72950 | 1344 ft | 2 kts | 341° |
| 2026-04-25 07:28 | -27.41139 | 151.72895 | 1351 ft | 19 kts | 281° |
| 2026-04-25 07:29 | -27.41103 | 151.72672 | 1406 ft | 43 kts | 279° |
| 2026-04-25 07:29 | -27.41003 | 151.72222 | 1537 ft | 73 kts | 283° |
| 2026-04-25 07:29 | -27.41166 | 151.71663 | 1736 ft | 85 kts | 207° |
| 2026-04-25 07:29 | -27.41737 | 151.71623 | 1957 ft | 88 kts | 146° |
| 2026-04-25 07:30 | -27.42084 | 151.72180 | 2144 ft | 93 kts | 102° |
| 2026-04-25 07:30 | -27.42136 | 151.72901 | 2354 ft | 90 kts | 84° |
| 2026-04-25 07:30 | -27.41815 | 151.73509 | 2467 ft | 98 kts | 45° |
| 2026-04-25 07:30 | -27.41162 | 151.73839 | 2525 ft | 110 kts | 28° |
| 2026-04-25 07:31 | -27.40379 | 151.74052 | 2593 ft | 116 kts | 15° |
| 2026-04-25 07:31 | -27.39580 | 151.74107 | 2794 ft | 113 kts | 10° |
| 2026-04-25 07:31 | -27.38833 | 151.74112 | 3158 ft | 103 kts | 13° |
| 2026-04-25 07:31 | -27.38133 | 151.74149 | 3491 ft | 98 kts | 14° |
| 2026-04-25 07:32 | -27.37484 | 151.74193 | 3853 ft | 90 kts | 16° |
| 2026-04-25 07:32 | -27.36858 | 151.74221 | 4120 ft | 95 kts | 14° |
| 2026-04-25 07:32 | -27.36176 | 151.74236 | 4325 ft | 101 kts | 12° |
| 2026-04-25 07:32 | -27.35425 | 151.74242 | 4414 ft | 115 kts | 10° |
| 2026-04-25 07:33 | -27.34579 | 151.74195 | 4471 ft | 126 kts | 6° |
| 2026-04-25 07:33 | -27.33698 | 151.74097 | 4590 ft | 130 kts | 5° |
| 2026-04-25 07:33 | -27.32746 | 151.73962 | 4395 ft | 150 kts | 358° |
| 2026-04-25 07:33 | -27.31750 | 151.73658 | 4339 ft | 151 kts | 347° |
| 2026-04-25 07:34 | -27.30798 | 151.73188 | 4435 ft | 147 kts | 341° |
| 2026-04-25 07:34 | -27.29868 | 151.72831 | 4728 ft | 135 kts | 351° |
| 2026-04-25 07:34 | -27.28966 | 151.72668 | 5012 ft | 129 kts | 4° |
| 2026-04-25 07:34 | -27.28106 | 151.72551 | 5286 ft | 123 kts | 6° |
| 2026-04-25 07:35 | -27.27241 | 151.72441 | 5393 ft | 127 kts | 6° |
| 2026-04-25 07:35 | -27.26320 | 151.72304 | 5329 ft | 142 kts | 1° |
| 2026-04-25 07:35 | -27.25304 | 151.72062 | 5197 ft | 152 kts | 351° |
| 2026-04-25 07:35 | -27.24340 | 151.71662 | 5240 ft | 150 kts | 343° |
| 2026-04-25 07:36 | -27.23407 | 151.71181 | 5361 ft | 146 kts | 343° |
| 2026-04-25 07:36 | -27.22485 | 151.70732 | 5575 ft | 139 kts | 343° |
| 2026-04-25 07:36 | -27.21645 | 151.70297 | 5874 ft | 128 kts | 343° |
| 2026-04-25 07:36 | -27.20854 | 151.69890 | 6030 ft | 124 kts | 344° |
| 2026-04-25 07:37 | -27.20040 | 151.69586 | 6184 ft | 120 kts | 5° |
| 2026-04-25 07:37 | -27.19311 | 151.69685 | 6625 ft | 91 kts | 40° |
| 2026-04-25 07:37 | -27.18963 | 151.70125 | 6945 ft | 70 kts | 88° |
| 2026-04-25 07:37 | -27.19120 | 151.70604 | 7134 ft | 67 kts | 130° |
| 2026-04-25 07:38 | -27.19542 | 151.70851 | 7262 ft | 71 kts | 148° |
| 2026-04-25 07:38 | -27.20055 | 151.70908 | 7362 ft | 78 kts | 166° |
| 2026-04-25 07:38 | -27.20642 | 151.70866 | 7406 ft | 90 kts | 168° |
| 2026-04-25 07:38 | -27.21278 | 151.70845 | 7471 ft | 93 kts | 166° |
| 2026-04-25 07:39 | -27.21913 | 151.70840 | 7617 ft | 89 kts | 166° |
| 2026-04-25 07:39 | -27.22528 | 151.70828 | 7721 ft | 93 kts | 167° |
| 2026-04-25 07:39 | -27.23220 | 151.70844 | 7692 ft | 105 kts | 163° |
| 2026-04-25 07:39 | -27.23952 | 151.70969 | 7696 ft | 106 kts | 156° |
| 2026-04-25 07:40 | -27.24605 | 151.71119 | 7880 ft | 88 kts | 157° |
| 2026-04-25 07:40 | -27.25187 | 151.71181 | 8054 ft | 82 kts | 166° |
| 2026-04-25 07:40 | -27.25777 | 151.71155 | 8162 ft | 89 kts | 170° |
| 2026-04-25 07:40 | -27.26370 | 151.70889 | 8251 ft | 95 kts | 201° |
| 2026-04-25 07:41 | -27.26789 | 151.70294 | 8397 ft | 100 kts | 233° |
| 2026-04-25 07:41 | -27.26862 | 151.69527 | 8574 ft | 103 kts | 283° |
| 2026-04-25 07:41 | -27.26401 | 151.68982 | 8843 ft | 92 kts | 356° |
| 2026-04-25 07:41 | -27.25797 | 151.68829 | 9027 ft | 89 kts | 6° |
| 2026-04-25 07:42 | -27.25181 | 151.68740 | 9202 ft | 91 kts | 7° |
| 2026-04-25 07:42 | -27.24545 | 151.68664 | 9371 ft | 92 kts | 7° |
| 2026-04-25 07:42 | -27.23906 | 151.68586 | 9517 ft | 94 kts | 7° |
| 2026-04-25 07:42 | -27.23228 | 151.68501 | 9639 ft | 97 kts | 4° |
| 2026-04-25 07:43 | -27.22580 | 151.68398 | 9831 ft | 94 kts | 4° |
| 2026-04-25 07:43 | -27.21937 | 151.68285 | 9987 ft | 94 kts | 3° |
| 2026-04-25 07:43 | -27.21291 | 151.68162 | 10127 ft | 95 kts | 2° |
| 2026-04-25 07:43 | -27.20629 | 151.68021 | 10202 ft | 100 kts | 360° |
| 2026-04-25 07:44 | -27.19931 | 151.67875 | 10299 ft | 102 kts | 7° |
| 2026-04-25 07:44 | -27.19333 | 151.68151 | 10502 ft | 90 kts | 62° |
| 2026-04-25 07:44 | -27.19214 | 151.68765 | 10679 ft | 77 kts | 101° |
| 2026-04-25 07:44 | -27.19428 | 151.69275 | 10838 ft | 71 kts | 128° |
| 2026-04-25 07:45 | -27.19860 | 151.69566 | 10927 ft | 76 kts | 149° |
| 2026-04-25 07:45 | -27.20387 | 151.69657 | 11042 ft | 77 kts | 168° |
| 2026-04-25 07:45 | -27.20904 | 151.69477 | 11171 ft | 79 kts | 198° |
| 2026-04-25 07:45 | -27.21205 | 151.68965 | 11300 ft | 85 kts | 262° |
| 2026-04-25 07:46 | -27.21134 | 151.68269 | 11282 ft | 97 kts | 304° |
| 2026-04-25 07:46 | -27.20998 | 151.67531 | 11362 ft | 95 kts | 281° |
| 2026-04-25 07:46 | -27.20916 | 151.66815 | 11517 ft | 92 kts | 264° |
| 2026-04-25 07:46 | -27.20942 | 151.66098 | 11636 ft | 93 kts | 252° |
| 2026-04-25 07:47 | -27.21063 | 151.65381 | 11733 ft | 93 kts | 241° |
| 2026-04-25 07:47 | -27.21241 | 151.64698 | 11856 ft | 90 kts | 240° |
| 2026-04-25 07:47 | -27.21397 | 151.64027 | 11975 ft | 88 kts | 242° |
| 2026-04-25 07:47 | -27.21564 | 151.63333 | 11989 ft | 96 kts | 240° |
| 2026-04-25 07:48 | -27.21770 | 151.62571 | 11968 ft | 105 kts | 240° |
| 2026-04-25 07:48 | -27.22002 | 151.61781 | 11981 ft | 108 kts | 238° |
| 2026-04-25 07:48 | -27.22269 | 151.60980 | 11952 ft | 108 kts | 233° |
| 2026-04-25 07:48 | -27.22723 | 151.60419 | 11924 ft | 89 kts | 193° |
| 2026-04-25 07:49 | -27.23280 | 151.60216 | 11779 ft | 83 kts | 179° |
| 2026-04-25 07:49 | -27.23863 | 151.60109 | 11585 ft | 88 kts | 177° |
| 2026-04-25 07:49 | -27.24499 | 151.60068 | 11282 ft | 97 kts | 168° |
| 2026-04-25 07:49 | -27.25180 | 151.60190 | 11049 ft | 96 kts | 159° |
| 2026-04-25 07:50 | -27.25781 | 151.60371 | 10984 ft | 85 kts | 163° |
| 2026-04-25 07:50 | -27.26315 | 151.60451 | 10898 ft | 70 kts | 168° |
| 2026-04-25 07:50 | -27.26356 | 151.60451 | 10887 ft | 69 kts | 168° |
| 2026-04-25 07:52 | -27.26539 | 151.60400 | 10754 ft | 40 kts | 180° |
| 2026-04-25 07:52 | -27.26825 | 151.60322 | 10527 ft | 44 kts | 175° |
| 2026-04-25 07:53 | -27.27128 | 151.60197 | 10266 ft | 48 kts | 174° |
| 2026-04-25 07:53 | -27.27458 | 151.60064 | 10008 ft | 56 kts | 179° |
| 2026-04-25 07:53 | -27.27856 | 151.59899 | 9877 ft | 65 kts | 175° |
| 2026-04-25 07:53 | -27.28254 | 151.59778 | 9591 ft | 55 kts | 176° |
| 2026-04-25 07:54 | -27.28620 | 151.59636 | 9365 ft | 55 kts | 174° |
| 2026-04-25 07:54 | -27.28974 | 151.59489 | 9163 ft | 53 kts | 178° |
| 2026-04-25 07:54 | -27.29322 | 151.59331 | 9050 ft | 56 kts | 180° |
| 2026-04-25 07:54 | -27.29692 | 151.59340 | 8952 ft | 52 kts | 154° |
| 2026-04-25 07:55 | -27.30082 | 151.59394 | 8859 ft | 60 kts | 158° |
| 2026-04-25 07:55 | -27.30486 | 151.59447 | 8687 ft | 58 kts | 159° |
| 2026-04-25 07:55 | -27.30835 | 151.59592 | 8529 ft | 53 kts | 137° |
| 2026-04-25 07:55 | -27.31078 | 151.59916 | 8313 ft | 55 kts | 121° |
| 2026-04-25 07:56 | -27.31226 | 151.60263 | 8180 ft | 42 kts | 118° |
| 2026-04-25 07:56 | -27.31354 | 151.60550 | 8062 ft | 39 kts | 118° |
| 2026-04-25 07:56 | -27.31475 | 151.60785 | 8000 ft | 33 kts | 121° |
| 2026-04-25 07:56 | -27.31612 | 151.61003 | 7943 ft | 33 kts | 121° |
| 2026-04-25 07:57 | -27.31713 | 151.61197 | 7812 ft | 28 kts | 121° |
| 2026-04-25 07:57 | -27.31830 | 151.61363 | 7637 ft | 26 kts | 127° |
| 2026-04-25 07:57 | -27.31957 | 151.61505 | 7463 ft | 25 kts | 128° |
| 2026-04-25 07:57 | -27.32072 | 151.61646 | 7327 ft | 24 kts | 129° |
| 2026-04-25 07:58 | -27.32170 | 151.61812 | 7168 ft | 27 kts | 121° |
| 2026-04-25 07:58 | -27.32226 | 151.62013 | 7036 ft | 29 kts | 114° |
| 2026-04-25 07:58 | -27.32246 | 151.62182 | 6939 ft | 35 kts | 103° |
| 2026-04-25 07:58 | -27.32229 | 151.62484 | 6873 ft | 40 kts | 99° |
| 2026-04-25 07:59 | -27.32176 | 151.62876 | 6722 ft | 37 kts | 98° |
| 2026-04-25 07:59 | -27.32147 | 151.63061 | 6641 ft | 36 kts | 97° |
| 2026-04-25 07:59 | -27.32096 | 151.63321 | 6530 ft | 32 kts | 95° |
| 2026-04-25 07:59 | -27.32030 | 151.63572 | 6418 ft | 36 kts | 96° |
| 2026-04-25 08:00 | -27.31954 | 151.63906 | 6212 ft | 55 kts | 90° |
| 2026-04-25 08:00 | -27.31864 | 151.64296 | 6110 ft | 51 kts | 97° |
| 2026-04-25 08:00 | -27.31782 | 151.64733 | 6002 ft | 67 kts | 85° |
| 2026-04-25 08:00 | -27.31591 | 151.65235 | 5924 ft | 73 kts | 80° |
| 2026-04-25 08:01 | -27.31414 | 151.65694 | 5925 ft | 53 kts | 98° |
| 2026-04-25 08:01 | -27.31563 | 151.65935 | 5755 ft | 45 kts | 162° |
| 2026-04-25 08:01 | -27.31917 | 151.65746 | 5499 ft | 64 kts | 197° |
| 2026-04-25 08:01 | -27.32290 | 151.65399 | 5231 ft | 75 kts | 207° |
| 2026-04-25 08:02 | -27.32650 | 151.64994 | 5022 ft | 71 kts | 217° |
| 2026-04-25 08:02 | -27.32961 | 151.64504 | 4905 ft | 84 kts | 229° |
| 2026-04-25 08:02 | -27.33342 | 151.63889 | 4556 ft | 98 kts | 227° |
| 2026-04-25 08:02 | -27.33708 | 151.63260 | 4333 ft | 92 kts | 231° |
| 2026-04-25 08:03 | -27.34162 | 151.62885 | 4162 ft | 76 kts | 166° |
| 2026-04-25 08:03 | -27.34578 | 151.63194 | 4002 ft | 72 kts | 127° |
| 2026-04-25 08:03 | -27.34818 | 151.63633 | 3926 ft | 63 kts | 129° |
| 2026-04-25 08:03 | -27.35072 | 151.63987 | 3819 ft | 54 kts | 135° |
| 2026-04-25 08:04 | -27.35376 | 151.64302 | 3717 ft | 64 kts | 134° |
| 2026-04-25 08:04 | -27.35698 | 151.64641 | 3624 ft | 64 kts | 135° |
| 2026-04-25 08:04 | -27.36034 | 151.65003 | 3507 ft | 68 kts | 134° |
| 2026-04-25 08:04 | -27.36371 | 151.65376 | 3334 ft | 64 kts | 136° |
| 2026-04-25 08:05 | -27.36728 | 151.65780 | 3087 ft | 78 kts | 132° |
| 2026-04-25 08:05 | -27.37065 | 151.66256 | 2964 ft | 77 kts | 131° |
| 2026-04-25 08:05 | -27.37396 | 151.66674 | 2923 ft | 66 kts | 130° |
| 2026-04-25 08:05 | -27.37689 | 151.67003 | 2829 ft | 53 kts | 138° |
| 2026-04-25 08:06 | -27.37988 | 151.67275 | 2730 ft | 61 kts | 137° |
| 2026-04-25 08:06 | -27.38343 | 151.67646 | 2534 ft | 79 kts | 132° |
| 2026-04-25 08:06 | -27.38688 | 151.68163 | 2351 ft | 86 kts | 128° |
| 2026-04-25 08:06 | -27.39025 | 151.68731 | 2188 ft | 88 kts | 127° |
| 2026-04-25 08:07 | -27.39353 | 151.69314 | 2050 ft | 87 kts | 126° |
| 2026-04-25 08:07 | -27.39663 | 151.69868 | 1973 ft | 81 kts | 127° |
| 2026-04-25 08:07 | -27.39943 | 151.70330 | 1896 ft | 59 kts | 128° |
| 2026-04-25 08:07 | -27.40210 | 151.70598 | 1831 ft | 49 kts | 142° |
| 2026-04-25 08:08 | -27.40449 | 151.70801 | 1745 ft | 39 kts | 130° |
| 2026-04-25 08:08 | -27.40604 | 151.71056 | 1661 ft | 46 kts | 122° |
| 2026-04-25 08:08 | -27.40734 | 151.71420 | 1604 ft | 53 kts | 109° |
| 2026-04-25 08:08 | -27.40839 | 151.71812 | 1535 ft | 46 kts | 108° |
| 2026-04-25 08:09 | -27.40941 | 151.72111 | 1474 ft | 37 kts | 112° |
| 2026-04-25 08:09 | -27.41028 | 151.72349 | 1431 ft | 28 kts | 116° |
| 2026-04-25 08:09 | -27.41083 | 151.72541 | 1405 ft | 27 kts | 104° |
| 2026-04-25 08:09 | -27.41119 | 151.72767 | 1386 ft | 29 kts | 107° |
| 2026-04-25 08:10 | -27.41151 | 151.72987 | 1381 ft | 26 kts | 102° |
| 2026-04-25 08:10 | -27.41180 | 151.73186 | 1382 ft | 26 kts | 102° |
| 2026-04-25 08:10 | -27.41208 | 151.73358 | 1380 ft | 19 kts | 104° |
| 2026-04-25 08:10 | -27.41228 | 151.73481 | 1356 ft | 8 kts | 103° |
| 2026-04-25 08:11 | -27.41234 | 151.73515 | 1351 ft | 3 kts | 104° |
| 2026-04-25 08:11 | -27.41235 | 151.73527 | 1344 ft | 1 kts | 105° |
| 2026-04-25 08:11 | -27.41235 | 151.73528 | 1340 ft | 0 kts | 107° |
| 2026-04-25 08:12 | -27.41235 | 151.73522 | 1352 ft | 2 kts | 289° |
| 2026-04-25 08:12 | -27.41235 | 151.73467 | 1356 ft | 7 kts | 238° |
| 2026-04-25 08:12 | -27.41273 | 151.73417 | 1357 ft | 10 kts | 192° |
| 2026-04-25 08:12 | -27.41287 | 151.73394 | 1347 ft | 3 kts | 99° |
| 2026-04-25 08:13 | -27.41289 | 151.73396 | 1347 ft | 1 kts | 106° |
| 2026-04-25 08:23 | -27.41266 | 151.73434 | 1349 ft | 10 kts | 64° |
| 2026-04-25 08:23 | -27.41234 | 151.73496 | 1349 ft | 7 kts | 96° |
| 2026-04-25 08:23 | -27.41234 | 151.73522 | 1345 ft | 0 kts | 104° |
| 2026-04-25 08:24 | -27.41234 | 151.73524 | 1344 ft | 1 kts | 105° |
| 2026-04-25 08:24 | -27.41236 | 151.73523 | 1341 ft | 0 kts | 99° |
| 2026-04-25 08:24 | -27.41236 | 151.73528 | 1341 ft | 0 kts | 102° |
| 2026-04-25 08:25 | -27.41241 | 151.73569 | 1384 ft | 20 kts | 100° |
| 2026-04-25 08:26 | -27.41268 | 151.73814 | 1420 ft | 33 kts | 99° |
| 2026-04-25 08:26 | -27.41101 | 151.73971 | 1485 ft | 49 kts | 4° |
| 2026-04-25 08:26 | -27.40751 | 151.73739 | 1539 ft | 68 kts | 327° |
| 2026-04-25 08:26 | -27.40474 | 151.73266 | 1558 ft | 83 kts | 285° |
| 2026-04-25 08:27 | -27.40316 | 151.72594 | 1571 ft | 94 kts | 284° |
| 2026-04-25 08:27 | -27.40141 | 151.71846 | 1555 ft | 104 kts | 285° |
| 2026-04-25 08:27 | -27.40389 | 151.71228 | 1630 ft | 90 kts | 184° |
| 2026-04-25 08:27 | -27.40795 | 151.71656 | 1505 ft | 86 kts | 112° |
| 2026-04-25 08:28 | -27.40989 | 151.72280 | 1434 ft | 83 kts | 110° |
| 2026-04-25 08:28 | -27.41123 | 151.72845 | 1396 ft | 61 kts | 104° |
| 2026-04-25 08:28 | -27.41194 | 151.73270 | 1388 ft | 42 kts | 102° |
| 2026-04-25 08:28 | -27.41226 | 151.73463 | 1362 ft | 15 kts | 103° |
| 2026-04-25 08:29 | -27.41235 | 151.73523 | 1343 ft | 4 kts | 104° |
| 2026-04-25 08:29 | -27.41237 | 151.73535 | 1355 ft | 8 kts | 102° |
| 2026-04-25 08:29 | -27.41263 | 151.73736 | 1379 ft | 41 kts | 101° |
| 2026-04-25 08:29 | -27.41131 | 151.74041 | 1462 ft | 54 kts | 31° |
| 2026-04-25 08:30 | -27.40769 | 151.73848 | 1502 ft | 70 kts | 300° |
| 2026-04-25 08:30 | -27.40615 | 151.73293 | 1537 ft | 81 kts | 285° |
| 2026-04-25 08:30 | -27.40462 | 151.72643 | 1577 ft | 87 kts | 280° |
| 2026-04-25 08:30 | -27.40329 | 151.71987 | 1617 ft | 94 kts | 279° |
| 2026-04-25 08:31 | -27.40329 | 151.71251 | 1642 ft | 92 kts | 221° |
| 2026-04-25 08:31 | -27.40818 | 151.71443 | 1504 ft | 95 kts | 116° |
| 2026-04-25 08:31 | -27.40998 | 151.72129 | 1459 ft | 88 kts | 103° |
| 2026-04-25 08:31 | -27.41100 | 151.72762 | 1436 ft | 75 kts | 97° |
| 2026-04-25 08:32 | -27.41103 | 151.72800 | 1432 ft | 74 kts | 98° |